Time;durP1;ratioP1;P1;durP2;ratioP2;P2;SDS_P1;SDS_P2;PMS_P1;PMS_P2;Temp;Humidity;BMP_temperature;BMP_pressure;BME280_temperature;BME280_humidity;BME280_pressure;Samples;Min_cycle;Max_cycle;Signal;HPM_P1;HPM_P2
2021/06/07 00:02:04;;;;;;;4.43;3.30;;;14.60;99.90;;;;;;4764220;30;20586;-84
2021/06/07 00:04:32;;;;;;;5.18;4.05;;;14.50;99.90;;;;;;4748312;30;20434;-84
2021/06/07 00:07:03;;;;;;;11.23;5.10;;;14.50;99.90;;;;;;4749291;30;20078;-84
2021/06/07 00:09:32;;;;;;;5.53;3.92;;;14.50;99.90;;;;;;4749766;30;20062;-84
2021/06/07 00:12:03;;;;;;;22.08;6.00;;;14.50;99.90;;;;;;4749139;30;20063;-83
2021/06/07 00:14:33;;;;;;;45.47;10.05;;;14.40;99.90;;;;;;4749690;30;20047;-83
2021/06/07 00:17:04;;;;;;;10.95;6.43;;;14.40;99.90;;;;;;4735188;30;20044;-83
2021/06/07 00:19:34;;;;;;;4.90;4.32;;;14.40;99.90;;;;;;4748284;30;20064;-83
2021/06/07 00:22:03;;;;;;;4.47;3.85;;;14.40;99.90;;;;;;4751863;30;20044;-83
2021/06/07 00:24:32;;;;;;;7.20;3.60;;;14.40;99.90;;;;;;4732185;30;20060;-83
2021/06/07 00:27:01;;;;;;;5.50;5.00;;;14.40;99.90;;;;;;4708450;30;20060;-84
2021/06/07 00:29:29;;;;;;;4.50;3.47;;;14.40;99.90;;;;;;4731530;30;20060;-84
2021/06/07 00:32:05;;;;;;;6.13;4.00;;;14.50;99.90;;;;;;4746806;30;20507;-84
2021/06/07 00:34:33;;;;;;;4.45;3.80;;;14.50;99.90;;;;;;4715181;30;20684;-83
2021/06/07 00:37:01;;;;;;;5.13;4.55;;;14.50;99.90;;;;;;4742626;30;20055;-84
2021/06/07 00:39:29;;;;;;;7.13;3.65;;;14.60;99.90;;;;;;4755619;30;20073;-84
2021/06/07 00:41:57;;;;;;;4.10;3.50;;;14.60;99.90;;;;;;4731445;30;20048;-83
2021/06/07 00:44:28;;;;;;;5.88;5.22;;;14.60;99.90;;;;;;4747784;30;20333;-84
2021/06/07 00:46:56;;;;;;;;;;;14.60;99.90;;;;;;4732600;30;20063;-84
2021/06/07 00:49:24;;;;;;;4.97;4.50;;;14.60;99.90;;;;;;4746312;30;19926;-84
2021/06/07 00:51:52;;;;;;;5.90;4.95;;;14.60;99.90;;;;;;4738364;30;20079;-83
2021/06/07 00:54:20;;;;;;;5.03;4.55;;;14.60;99.90;;;;;;4765485;30;20052;-84
2021/06/07 00:56:48;;;;;;;4.05;3.53;;;14.60;99.90;;;;;;4734889;30;20435;-83
2021/06/07 00:59:16;;;;;;;4.78;4.32;;;14.60;99.90;;;;;;4737500;30;20509;-84
2021/06/07 01:01:44;;;;;;;5.43;4.65;;;14.60;99.90;;;;;;4752960;30;20059;-85
2021/06/07 01:04:12;;;;;;;6.95;4.82;;;14.70;99.90;;;;;;4739715;30;20066;-84
2021/06/07 01:06:40;;;;;;;5.07;4.30;;;14.60;99.90;;;;;;4738894;30;20051;-85
2021/06/07 01:09:08;;;;;;;6.20;5.13;;;14.60;99.90;;;;;;4739745;30;20048;-84
2021/06/07 01:11:37;;;;;;;5.38;4.43;;;14.60;99.90;;;;;;4754569;30;20072;-85
2021/06/07 01:14:06;;;;;;;6.10;4.60;;;14.60;99.90;;;;;;4739172;30;20055;-85
2021/06/07 01:16:34;;;;;;;6.50;5.22;;;14.60;99.90;;;;;;4740017;30;20098;-84
2021/06/07 01:19:04;;;;;;;5.13;4.13;;;14.60;99.90;;;;;;4753449;30;20463;-84
2021/06/07 01:21:32;;;;;;;19.50;7.20;;;14.50;99.90;;;;;;4738925;30;20048;-85
2021/06/07 01:24:00;;;;;;;4.22;3.45;;;14.40;99.90;;;;;;4770358;30;20075;-84
2021/06/07 01:26:28;;;;;;;4.43;3.78;;;14.40;99.90;;;;;;4753861;30;20059;-84
2021/06/07 01:28:56;;;;;;;5.35;4.53;;;14.40;99.90;;;;;;4768434;30;20051;-84
2021/06/07 01:31:24;;;;;;;4.95;3.47;;;14.40;99.90;;;;;;4754149;30;20423;-84
2021/06/07 01:34:11;;;;;;;5.15;4.20;;;14.30;99.90;;;;;;4769102;30;20062;-84
2021/06/07 01:36:39;;;;;;;7.72;5.95;;;14.30;99.90;;;;;;4731456;30;20063;-84
2021/06/07 01:39:07;;;;;;;28.80;8.00;;;14.30;99.90;;;;;;4736755;30;20084;-84
2021/06/07 01:41:54;;;;;;;8.38;3.63;;;14.30;99.90;;;;;;4751795;30;20054;-84
2021/06/07 01:44:23;;;;;;;17.75;7.53;;;14.20;99.90;;;;;;4736504;30;20573;-84
2021/06/07 01:47:09;;;;;;;7.13;4.78;;;14.20;99.90;;;;;;4735246;30;20056;-84
2021/06/07 01:49:38;;;;;;;19.77;7.28;;;14.20;99.90;;;;;;4735443;30;20063;-84
2021/06/07 01:52:06;;;;;;;20.63;7.28;;;14.20;99.90;;;;;;4736081;30;20075;-84
2021/06/07 01:54:34;;;;;;;32.60;10.50;;;14.30;99.90;;;;;;4749139;30;20794;-84
2021/06/07 01:57:04;;;;;;;14.30;6.53;;;14.30;99.90;;;;;;4735236;30;20052;-84
2021/06/07 01:59:32;;;;;;;14.57;6.15;;;14.20;99.90;;;;;;4721584;30;20071;-84
2021/06/07 02:02:00;;;;;;;10.43;5.68;;;14.20;99.90;;;;;;4751306;30;20056;-84
2021/06/07 02:04:28;;;;;;;7.20;4.35;;;14.30;99.90;;;;;;4721061;30;20059;-84
2021/06/07 02:06:59;;;;;;;6.20;4.72;;;14.30;99.90;;;;;;4734951;30;20052;-84
2021/06/07 02:09:28;;;;;;;4.85;4.30;;;14.30;99.90;;;;;;4751651;30;20078;-84
2021/06/07 02:11:56;;;;;;;56.25;14.85;;;14.30;99.90;;;;;;4735862;30;20503;-83
2021/06/07 02:14:24;;;;;;;24.85;7.82;;;14.40;99.90;;;;;;4734803;30;20578;-84
2021/06/07 02:16:52;;;;;;;33.88;11.43;;;14.40;99.90;;;;;;4750414;30;20487;-83
2021/06/07 02:19:20;;;;;;;24.25;9.57;;;14.40;99.90;;;;;;4735090;30;20421;-83
2021/06/07 02:21:48;;;;;;;5.70;4.53;;;14.40;99.90;;;;;;4740444;30;20052;-83
2021/06/07 02:24:15;;;;;;;8.77;6.00;;;14.40;99.90;;;;;;4739139;30;20055;-83
2021/06/07 02:26:43;;;;;;;6.30;3.42;;;14.40;99.90;;;;;;4752347;30;20047;-83
2021/06/07 02:29:13;;;;;;;5.30;4.45;;;14.40;99.90;;;;;;4722544;30;20050;-83
2021/06/07 02:31:43;;;;;;;4.82;3.78;;;14.40;99.90;;;;;;4723938;30;20074;-83
2021/06/07 02:34:13;;;;;;;4.47;4.05;;;14.40;99.90;;;;;;4752466;30;20043;-83
2021/06/07 02:36:43;;;;;;;4.40;3.42;;;14.50;99.90;;;;;;4734876;30;20064;-83
2021/06/07 02:39:15;;;;;;;7.10;5.18;;;14.50;99.90;;;;;;4721180;30;20411;-83
2021/06/07 02:41:44;;;;;;;5.50;4.38;;;14.50;99.90;;;;;;4749848;30;20052;-83
2021/06/07 02:44:12;;;;;;;5.88;3.67;;;14.50;99.90;;;;;;4735473;30;20056;-83
2021/06/07 02:46:40;;;;;;;4.97;4.55;;;14.40;99.90;;;;;;4734803;30;20044;-83
2021/06/07 02:49:08;;;;;;;5.05;4.55;;;14.40;99.90;;;;;;4719375;30;20063;-84
2021/06/07 02:51:36;;;;;;;5.93;4.70;;;14.50;99.90;;;;;;4736668;30;20052;-83
2021/06/07 02:54:04;;;;;;;5.25;4.43;;;14.50;99.90;;;;;;4734950;30;20400;-83
2021/06/07 02:56:32;;;;;;;5.78;4.88;;;14.40;99.90;;;;;;4751287;30;20052;-84
2021/06/07 02:59:01;;;;;;;10.02;5.65;;;14.40;99.90;;;;;;4749356;30;20056;-83
2021/06/07 03:01:29;;;;;;;6.03;4.55;;;14.40;99.90;;;;;;4750110;30;20041;-84
2021/06/07 03:03:57;;;;;;;8.73;6.28;;;14.30;99.90;;;;;;4733941;30;20064;-84
2021/06/07 03:06:25;;;;;;;8.77;4.75;;;14.30;99.90;;;;;;4733894;30;20414;-84
2021/06/07 03:08:53;;;;;;;8.48;5.55;;;14.30;99.90;;;;;;4719884;30;20059;-84
2021/06/07 03:11:21;;;;;;;8.30;6.13;;;14.30;99.90;;;;;;4750249;30;20479;-83
2021/06/07 03:13:49;;;;;;;9.07;5.40;;;14.30;99.90;;;;;;4734194;30;20059;-83
2021/06/07 03:16:17;;;;;;;6.38;5.20;;;14.30;99.90;;;;;;4735063;30;20052;-83
2021/06/07 03:18:45;;;;;;;8.25;5.88;;;14.30;99.90;;;;;;4749463;30;20059;-83
2021/06/07 03:21:13;;;;;;;5.50;4.88;;;14.30;99.90;;;;;;4749215;30;20435;-83
2021/06/07 03:23:42;;;;;;;8.55;4.97;;;14.30;99.90;;;;;;4737869;30;20422;-83
2021/06/07 03:26:10;;;;;;;5.70;4.35;;;14.30;99.90;;;;;;4751226;30;20415;-84
2021/06/07 03:28:39;;;;;;;7.53;4.70;;;14.30;99.90;;;;;;4737144;30;20060;-84
2021/06/07 03:31:10;;;;;;;8.00;5.78;;;14.30;99.90;;;;;;4752189;30;20419;-84
2021/06/07 03:33:39;;;;;;;7.40;5.28;;;14.30;99.90;;;;;;4751131;30;20682;-83
2021/06/07 03:36:07;;;;;;;7.32;5.25;;;14.30;99.90;;;;;;4734027;30;20492;-83
2021/06/07 03:38:35;;;;;;;6.78;5.75;;;14.30;99.90;;;;;;4734261;30;20052;-83
2021/06/07 03:41:05;;;;;;;5.40;4.57;;;14.40;99.90;;;;;;4733805;30;20500;-83
2021/06/07 03:43:35;;;;;;;5.60;4.75;;;14.30;99.90;;;;;;4734354;30;20059;-83
2021/06/07 03:46:05;;;;;;;5.97;4.45;;;14.30;99.90;;;;;;4749781;30;20063;-84
2021/06/07 03:48:33;;;;;;;13.05;6.00;;;14.30;99.90;;;;;;4718916;30;20419;-84
2021/06/07 03:51:01;;;;;;;42.90;13.35;;;14.20;99.90;;;;;;4749850;30;20052;-84
2021/06/07 03:53:29;;;;;;;20.80;8.73;;;14.20;99.90;;;;;;4749537;30;20063;-83
2021/06/07 03:55:57;;;;;;;31.63;10.20;;;14.30;99.90;;;;;;4758967;30;20063;-83
2021/06/07 03:58:27;;;;;;;8.02;5.53;;;14.20;99.90;;;;;;4767207;30;20494;-84
2021/06/07 04:00:55;;;;;;;7.78;5.15;;;14.20;99.90;;;;;;4766099;30;20048;-83
2021/06/07 04:03:23;;;;;;;8.10;5.60;;;14.20;99.90;;;;;;4767344;30;20067;-83
2021/06/07 04:05:51;;;;;;;8.50;5.30;;;14.30;99.90;;;;;;4767221;30;20051;-83
2021/06/07 04:08:19;;;;;;;12.75;8.05;;;14.30;99.90;;;;;;4767948;30;20066;-84
2021/06/07 04:10:47;;;;;;;9.13;6.20;;;14.30;99.90;;;;;;4751111;30;20064;-83
2021/06/07 04:13:15;;;;;;;9.27;7.03;;;14.30;99.90;;;;;;4766640;30;20048;-83
2021/06/07 04:15:43;;;;;;;9.77;6.10;;;14.30;99.90;;;;;;4768125;30;20062;-83
2021/06/07 04:18:14;;;;;;;;;;;14.30;99.90;;;;;;4752022;30;20127;-83
2021/06/07 04:20:42;;;;;;;9.43;7.55;;;14.30;99.90;;;;;;4766787;30;19926;-83
2021/06/07 04:23:10;;;;;;;9.23;6.72;;;14.20;99.90;;;;;;4737533;30;20056;-83
2021/06/07 04:25:38;;;;;;;7.05;6.22;;;14.20;99.90;;;;;;4719290;30;20063;-84
2021/06/07 04:28:08;;;;;;;8.93;6.03;;;14.40;99.90;;;;;;4734771;30;20396;-83
2021/06/07 04:30:36;;;;;;;7.70;5.30;;;14.40;99.90;;;;;;4733574;30;20049;-83
2021/06/07 04:33:09;;;;;;;8.70;6.53;;;14.50;99.90;;;;;;4705292;30;20055;-83
2021/06/07 04:35:37;;;;;;;7.00;5.53;;;14.50;99.90;;;;;;4752725;30;20079;-83
2021/06/07 04:38:05;;;;;;;7.40;4.97;;;14.50;99.90;;;;;;4769304;30;20048;-83
2021/06/07 04:40:36;;;;;;;7.20;5.93;;;14.60;99.90;;;;;;4752305;30;20060;-84
2021/06/07 04:43:07;;;;;;;10.02;6.20;;;14.60;99.90;;;;;;4748382;30;20388;-80
2021/06/07 04:45:35;;;;;;;;;;;14.60;99.90;;;;;;4770717;30;20069;-82
2021/06/07 04:48:05;;;;;;;8.10;6.13;;;14.60;99.90;;;;;;4755214;30;19940;-83
2021/06/07 04:50:34;;;;;;;9.35;6.80;;;14.60;99.90;;;;;;4753770;30;20063;-84
2021/06/07 04:53:03;;;;;;;7.78;6.22;;;14.60;99.90;;;;;;4753948;30;20047;-85
2021/06/07 04:55:41;;;;;;;9.27;6.80;;;14.60;99.90;;;;;;4740516;30;20509;-85
2021/06/07 04:58:17;;;;;;;8.23;4.97;;;14.60;99.90;;;;;;4771199;30;20051;-85
2021/06/07 05:00:48;;;;;;;10.23;7.28;;;14.70;99.90;;;;;;4771023;30;20055;-86
2021/06/07 05:03:17;;;;;;;9.63;6.80;;;14.70;99.90;;;;;;4754895;30;20059;-86
2021/06/07 05:05:45;;;;;;;8.65;6.72;;;14.80;99.90;;;;;;4754794;30;20077;-86
2021/06/07 05:08:14;;;;;;;7.00;5.07;;;14.80;99.90;;;;;;4740977;30;20063;-87
2021/06/07 05:10:42;;;;;;;9.80;7.13;;;14.90;99.90;;;;;;4739387;30;20059;-87
2021/06/07 05:13:10;;;;;;;14.35;7.97;;;14.90;99.90;;;;;;4753988;30;20074;-85
2021/06/07 05:15:38;;;;;;;11.02;6.45;;;14.80;99.90;;;;;;4769581;30;20060;-86
2021/06/07 05:18:07;;;;;;;12.75;9.80;;;14.90;99.90;;;;;;4751091;30;20052;-85
2021/06/07 05:20:35;;;;;;;9.07;6.20;;;14.80;99.90;;;;;;4735701;30;20060;-87
2021/06/07 05:23:06;;;;;;;;;;;14.80;99.90;;;;;;4753189;30;20060;-86
2021/06/07 05:25:36;;;;;;;11.73;7.43;;;14.90;99.90;;;;;;4736135;30;19926;-85
2021/06/07 05:28:07;;;;;;;8.90;6.37;;;15.00;99.90;;;;;;4752174;30;20056;-86
2021/06/07 05:30:37;;;;;;;12.40;7.97;;;15.00;99.90;;;;;;4751740;30;20048;-86
2021/06/07 05:33:06;;;;;;;9.95;7.22;;;15.10;99.90;;;;;;4736309;30;20052;-86
2021/06/07 05:35:40;;;;;;;10.18;7.88;;;15.10;99.90;;;;;;4734080;30;20063;-86
2021/06/07 05:38:10;;;;;;;10.25;7.05;;;15.10;99.90;;;;;;4735099;30;20082;-87
2021/06/07 05:40:39;;;;;;;9.35;6.95;;;15.10;99.90;;;;;;4734151;30;20083;-86
2021/06/07 05:43:07;;;;;;;10.25;6.40;;;15.20;99.90;;;;;;4735322;30;20059;-87
2021/06/07 05:45:36;;;;;;;10.60;7.57;;;15.20;99.90;;;;;;4748225;30;20423;-86
2021/06/07 05:48:05;;;;;;;9.45;6.82;;;15.20;99.90;;;;;;4751216;30;20079;-86
2021/06/07 05:50:35;;;;;;;8.70;6.85;;;15.30;99.90;;;;;;4739154;30;20040;-86
2021/06/07 05:53:04;;;;;;;10.00;7.32;;;15.30;99.90;;;;;;4737760;30;20047;-86
2021/06/07 05:55:39;;;;;;;12.18;8.07;;;15.20;99.90;;;;;;4752191;30;20060;-86
2021/06/07 05:58:18;;;;;;;8.63;7.18;;;15.20;99.90;;;;;;4752362;30;20043;-86
2021/06/07 06:00:48;;;;;;;7.97;6.38;;;15.30;99.90;;;;;;4767704;30;20059;-87
2021/06/07 06:03:17;;;;;;;6.90;5.72;;;15.30;99.90;;;;;;4752590;30;20055;-87
2021/06/07 06:05:45;;;;;;;7.43;5.68;;;15.40;99.90;;;;;;4766660;30;20052;-87
2021/06/07 06:08:13;;;;;;;7.65;6.32;;;15.30;99.90;;;;;;4768583;30;20067;-88
2021/06/07 06:10:41;;;;;;;10.32;6.57;;;15.40;99.90;;;;;;4767421;30;20058;-87
2021/06/07 06:13:29;;;;;;;7.72;5.07;;;15.30;99.90;;;;;;4725320;30;20210;-88
2021/06/07 06:15:57;;;;;;;9.35;7.00;;;15.30;99.90;;;;;;4751645;30;20241;-88
2021/06/07 06:18:25;;;;;;;6.57;5.07;;;15.20;99.90;;;;;;4741828;30;20342;-88
2021/06/07 06:20:53;;;;;;;7.15;5.57;;;15.30;99.90;;;;;;4750551;30;20163;-88
2021/06/07 06:23:22;;;;;;;6.68;5.65;;;15.40;99.90;;;;;;4737420;30;20498;-88
2021/06/07 06:25:50;;;;;;;7.28;5.60;;;15.40;99.90;;;;;;4737376;30;20047;-88
2021/06/07 06:28:22;;;;;;;5.97;4.75;;;15.40;99.90;;;;;;4752914;30;20059;-89
2021/06/07 06:30:51;;;;;;;7.50;6.40;;;15.50;99.90;;;;;;4723374;30;20062;-88
2021/06/07 06:33:21;;;;;;;5.78;5.15;;;15.50;99.90;;;;;;4739572;30;20044;-89
2021/06/07 06:35:57;;;;;;;7.88;7.00;;;15.60;99.90;;;;;;4734230;30;20071;-89
2021/06/07 06:38:38;;;;;;;6.97;5.93;;;15.70;99.90;;;;;;4729865;30;20055;-89
2021/06/07 06:41:17;;;;;;;7.47;6.60;;;15.70;99.90;;;;;;4721139;30;20431;-89
2021/06/07 06:43:54;;;;;;;7.80;5.93;;;15.70;99.90;;;;;;4717726;30;20052;-88
2021/06/07 06:46:34;;;;;;;8.68;5.55;;;15.80;99.90;;;;;;4736591;30;20071;-88
2021/06/07 06:49:23;;;;;;;6.72;5.35;;;15.80;99.90;;;;;;4749487;30;20414;-88
2021/06/07 06:52:00;;;;;;;5.53;4.47;;;15.90;99.90;;;;;;4736580;30;20431;-88
2021/06/07 06:54:36;;;;;;;7.35;4.93;;;15.90;99.90;;;;;;4720232;30;20048;-88
2021/06/07 06:57:14;;;;;;;6.57;5.38;;;16.00;99.90;;;;;;4723713;30;20060;-86
2021/06/07 06:59:53;;;;;;;6.07;5.35;;;16.00;99.90;;;;;;4731330;30;20439;-85
2021/06/07 07:02:25;;;;;;;6.60;5.38;;;16.10;99.90;;;;;;4747790;30;20045;-87
2021/06/07 07:04:54;;;;;;;6.60;4.85;;;16.20;99.90;;;;;;4701471;30;20056;-86
2021/06/07 07:07:23;;;;;;;5.68;4.85;;;16.30;99.90;;;;;;4733100;30;20064;-85
2021/06/07 07:09:54;;;;;;;7.68;4.93;;;16.30;99.90;;;;;;4732307;30;20411;-86
2021/06/07 07:12:26;;;;;;;6.55;4.63;;;16.30;99.90;;;;;;4718435;30;20063;-85
2021/06/07 07:14:55;;;;;;;5.95;3.97;;;16.30;99.90;;;;;;4732165;30;20546;-85
2021/06/07 07:17:23;;;;;;;6.47;4.82;;;16.30;99.90;;;;;;4729444;30;20063;-85
2021/06/07 07:19:52;;;;;;;6.70;4.90;;;16.30;99.90;;;;;;4716247;30;20063;-86
2021/06/07 07:23:01;;;;;;;7.15;5.03;;;16.40;99.90;;;;;;4735362;30;20044;-90
2021/06/07 07:26:21;;;;;;;5.97;4.43;;;16.30;99.90;;;;;;4726157;30;20056;-94
2021/06/07 07:29:26;;;;;;;4.82;4.03;;;16.40;99.90;;;;;;4671804;30;20045;-94
2021/06/07 07:32:03;;;;;;;6.90;5.20;;;16.40;99.90;;;;;;4727404;30;20526;-92
2021/06/07 07:34:33;;;;;;;7.78;5.38;;;16.40;99.90;;;;;;4709769;30;20056;-92
2021/06/07 07:37:09;;;;;;;5.80;5.25;;;16.40;99.90;;;;;;4724455;30;20048;-91
2021/06/07 07:39:43;;;;;;;5.30;4.30;;;16.50;99.90;;;;;;4738128;30;20067;-91
2021/06/07 07:42:18;;;;;;;6.90;6.20;;;16.70;99.90;;;;;;4713676;30;20062;-91
2021/06/07 07:44:46;;;;;;;9.25;6.85;;;17.10;99.90;;;;;;4699379;30;20395;-93
2021/06/07 07:47:22;;;;;;;6.15;5.47;;;17.00;99.90;;;;;;4700885;30;20064;-89
2021/06/07 07:49:53;;;;;;;4.53;4.13;;;17.00;99.90;;;;;;4719305;30;20051;-91
2021/06/07 07:52:23;;;;;;;7.22;5.80;;;17.40;99.90;;;;;;4722202;30;20060;-90
2021/06/07 07:54:55;;;;;;;6.00;5.45;;;17.30;99.90;;;;;;4714201;30;20087;-92
2021/06/07 07:57:31;;;;;;;7.05;5.25;;;17.30;99.90;;;;;;4700244;30;20407;-91
2021/06/07 08:00:06;;;;;;;6.97;6.22;;;17.20;99.90;;;;;;4701414;30;20439;-93
2021/06/07 08:02:54;;;;;;;6.00;5.25;;;18.30;99.90;;;;;;4686388;30;20710;-92
2021/06/07 08:05:36;;;;;;;6.85;5.88;;;18.20;99.90;;;;;;4696718;30;20056;-91
2021/06/07 08:08:45;;;;;;;6.28;5.28;;;17.70;99.90;;;;;;4698598;30;20081;-91
2021/06/07 08:11:40;;;;;;;8.70;6.28;;;17.50;99.90;;;;;;4696760;30;20057;-93
2021/06/07 08:14:15;;;;;;;10.10;6.07;;;17.60;99.90;;;;;;4669656;30;20056;-90
2021/06/07 08:16:48;;;;;;;12.27;8.45;;;18.10;99.90;;;;;;4704416;30;20060;-91
2021/06/07 08:19:27;;;;;;;7.88;7.07;;;18.20;99.90;;;;;;4711401;30;20236;-92
2021/06/07 08:22:06;;;;;;;7.70;6.55;;;17.80;99.90;;;;;;4684281;30;20421;-91
2021/06/07 08:24:36;;;;;;;6.53;5.93;;;17.70;99.90;;;;;;4684070;30;20064;-91
2021/06/07 08:27:04;;;;;;;6.38;5.78;;;17.70;99.90;;;;;;4714608;30;20134;-91
2021/06/07 08:29:33;;;;;;;8.05;6.82;;;18.00;99.90;;;;;;4704747;30;20064;-90
2021/06/07 08:32:06;;;;;;;6.55;5.60;;;18.10;99.90;;;;;;4720279;30;20060;-92
2021/06/07 08:34:38;;;;;;;6.22;5.65;;;18.00;99.90;;;;;;4707964;30;20052;-90
2021/06/07 08:37:08;;;;;;;9.88;8.88;;;18.00;99.90;;;;;;4717540;30;20045;-92
2021/06/07 08:39:55;;;;;;;6.85;6.15;;;18.00;99.90;;;;;;4718411;30;20073;-91
2021/06/07 08:42:24;;;;;;;6.28;5.55;;;18.10;99.90;;;;;;4718380;30;20052;-93
2021/06/07 08:45:11;;;;;;;6.63;5.97;;;18.00;99.90;;;;;;4718669;30;20049;-92
2021/06/07 08:48:05;;;;;;;9.60;7.53;;;18.00;99.90;;;;;;4707112;30;20075;-92
2021/06/07 08:51:06;;;;;;;7.22;6.53;;;18.10;99.90;;;;;;4707921;30;20080;-90
2021/06/07 08:53:40;;;;;;;8.13;6.85;;;18.30;99.90;;;;;;4717903;30;20506;-94
2021/06/07 08:56:15;;;;;;;7.65;6.88;;;18.30;99.90;;;;;;4733069;30;20064;-90
2021/06/07 08:58:47;;;;;;;12.53;6.07;;;18.20;99.90;;;;;;4742542;30;20063;-92
2021/06/07 09:02:08;;;;;;;6.05;5.50;;;18.10;99.90;;;;;;4696495;30;20052;-92
2021/06/07 09:04:51;;;;;;;6.47;5.88;;;18.40;99.90;;;;;;4699670;30;20057;-82
2021/06/07 09:07:19;;;;;;;5.70;5.13;;;18.40;99.90;;;;;;4726199;30;20428;-82
2021/06/07 09:10:04;;;;;;;6.13;5.53;;;18.50;99.90;;;;;;4712028;30;20053;-84
2021/06/07 09:12:32;;;;;;;4.15;3.75;;;18.80;99.90;;;;;;4712188;30;20496;-83
2021/06/07 09:15:02;;;;;;;3.60;3.30;;;19.10;99.90;;;;;;4731009;30;20052;-83
2021/06/07 09:17:30;;;;;;;2.85;2.65;;;19.20;99.90;;;;;;4747954;30;20065;-82
2021/06/07 09:20:31;;;;;;;2.70;2.50;;;19.20;99.90;;;;;;4732767;30;20060;-84
2021/06/07 09:23:02;;;;;;;3.00;2.80;;;19.20;99.90;;;;;;4695943;30;20049;-81
2021/06/07 09:25:35;;;;;;;3.80;3.50;;;19.10;99.90;;;;;;4734382;30;20048;-82
2021/06/07 09:28:12;;;;;;;4.70;3.70;;;18.90;99.90;;;;;;4734073;30;20137;-80
2021/06/07 09:30:47;;;;;;;3.13;2.92;;;18.80;99.90;;;;;;4718864;30;20071;-81
2021/06/07 09:33:24;;;;;;;3.97;3.38;;;18.70;99.90;;;;;;4760116;30;20052;-81
2021/06/07 09:36:17;;;;;;;5.78;5.28;;;18.70;99.90;;;;;;4768464;30;20717;-81
2021/06/07 09:38:57;;;;;;;4.72;4.32;;;18.60;99.90;;;;;;4769938;30;20047;-81
2021/06/07 09:41:28;;;;;;;3.58;3.28;;;18.60;99.90;;;;;;4762049;30;20048;-81
2021/06/07 09:44:01;;;;;;;2.85;2.65;;;18.80;99.90;;;;;;4760612;30;20066;-82
2021/06/07 09:46:31;;;;;;;3.15;2.95;;;19.00;99.90;;;;;;4769545;30;20064;-81
2021/06/07 09:49:10;;;;;;;3.80;3.47;;;19.20;99.90;;;;;;4768906;30;20048;-81
2021/06/07 09:51:40;;;;;;;3.08;2.88;;;19.20;99.90;;;;;;4753512;30;20071;-81
2021/06/07 09:54:14;;;;;;;2.60;2.40;;;19.20;99.90;;;;;;4751907;30;20052;-81
2021/06/07 09:56:54;;;;;;;3.20;2.90;;;19.10;99.90;;;;;;4751714;30;20063;-81
2021/06/07 09:59:26;;;;;;;4.90;4.50;;;19.20;99.90;;;;;;4753150;30;20067;-81
2021/06/07 10:01:57;;;;;;;3.47;3.28;;;19.30;99.90;;;;;;4768900;30;20047;-81
2021/06/07 10:04:43;;;;;;;;;;;19.40;99.90;;;;;;4765704;30;20434;-81
2021/06/07 10:07:12;;;;;;;5.25;4.75;;;19.30;99.90;;;;;;4740489;30;19929;-81
2021/06/07 10:10:08;;;;;;;5.03;4.55;;;19.50;99.90;;;;;;4768035;30;20075;-81
2021/06/07 10:12:39;;;;;;;5.53;4.38;;;19.50;99.90;;;;;;4767129;30;20059;-80
2021/06/07 10:15:31;;;;;;;18.73;4.28;;;19.30;99.90;;;;;;4753594;30;20059;-80
2021/06/07 10:18:09;;;;;;;5.20;4.80;;;19.40;99.90;;;;;;4768923;30;20056;-81
2021/06/07 10:20:51;;;;;;;3.67;3.45;;;19.30;99.90;;;;;;4766386;30;20520;-80
2021/06/07 10:23:34;;;;;;;4.22;3.83;;;19.30;99.90;;;;;;4769497;30;20059;-81
2021/06/07 10:26:04;;;;;;;4.43;4.03;;;19.60;99.90;;;;;;4768725;30;20048;-80
2021/06/07 10:28:38;;;;;;;3.90;3.60;;;19.90;99.90;;;;;;4768267;30;20067;-81
2021/06/07 10:31:17;;;;;;;5.65;5.15;;;20.10;99.90;;;;;;4765877;30;20059;-79
2021/06/07 10:33:59;;;;;;;5.35;4.88;;;20.00;99.90;;;;;;4732729;30;20052;-79
2021/06/07 10:36:29;;;;;;;4.43;4.13;;;20.00;99.90;;;;;;4726082;30;20061;-80
2021/06/07 10:39:13;;;;;;;3.65;3.33;;;20.10;99.90;;;;;;4715801;30;20056;-80
2021/06/07 10:41:45;;;;;;;4.65;4.25;;;20.30;99.90;;;;;;4722257;30;20060;-80
2021/06/07 10:44:13;;;;;;;4.00;3.70;;;20.50;99.90;;;;;;4733506;30;20060;-79
2021/06/07 10:46:43;;;;;;;2.78;2.58;;;20.50;99.90;;;;;;4732984;30;20059;-80
2021/06/07 10:49:34;;;;;;;4.72;4.32;;;20.40;99.90;;;;;;4725524;30;20052;-80
2021/06/07 10:52:13;;;;;;;5.50;3.60;;;20.30;99.90;;;;;;4732915;30;20074;-80
2021/06/07 10:55:07;;;;;;;3.60;3.30;;;20.20;99.90;;;;;;4715555;30;20056;-80
2021/06/07 10:57:49;;;;;;;3.88;3.58;;;20.20;99.90;;;;;;4715378;30;20060;-81
2021/06/07 11:00:30;;;;;;;5.40;3.28;;;20.20;99.90;;;;;;4715135;30;20061;-81
2021/06/07 11:03:01;;;;;;;3.10;2.90;;;20.30;99.90;;;;;;4715430;30;20424;-80
2021/06/07 11:05:32;;;;;;;2.95;2.72;;;20.40;99.90;;;;;;4714642;30;20515;-80
2021/06/07 11:08:07;;;;;;;5.43;3.22;;;20.40;99.90;;;;;;4715553;30;20069;-79
2021/06/07 11:10:39;;;;;;;2.97;2.78;;;20.20;99.90;;;;;;4714896;30;20408;-80
2021/06/07 11:13:13;;;;;;;3.60;3.30;;;20.10;99.90;;;;;;4713921;30;20052;-80
2021/06/07 11:15:50;;;;;;;3.42;3.13;;;20.50;99.90;;;;;;4714004;30;20416;-80
2021/06/07 11:18:26;;;;;;;5.32;3.28;;;20.60;99.90;;;;;;4713264;30;20060;-81
2021/06/07 11:20:57;;;;;;;2.85;2.60;;;20.40;99.90;;;;;;4721699;30;20060;-80
2021/06/07 11:23:40;;;;;;;7.25;2.80;;;20.20;99.90;;;;;;4730847;30;20149;-82
2021/06/07 11:26:14;;;;;;;3.25;2.95;;;20.10;99.90;;;;;;4731310;30;20083;-83
2021/06/07 11:28:45;;;;;;;3.30;3.00;;;20.00;99.90;;;;;;4729269;30;20574;-82
2021/06/07 11:31:18;;;;;;;2.22;2.13;;;20.00;99.90;;;;;;4731443;30;20060;-81
2021/06/07 11:33:54;;;;;;;2.85;2.58;;;20.20;99.90;;;;;;4729500;30;20064;-81
2021/06/07 11:36:37;;;;;;;2.53;2.33;;;20.50;99.90;;;;;;4724323;30;20524;-81
2021/06/07 11:39:28;;;;;;;3.13;2.83;;;20.60;99.90;;;;;;4711927;30;20434;-81
2021/06/07 11:41:56;;;;;;;3.13;2.92;;;20.70;99.90;;;;;;4712795;30;20052;-81
2021/06/07 11:44:46;;;;;;;2.45;2.35;;;20.90;99.90;;;;;;4713404;30;20053;-81
2021/06/07 11:47:21;;;;;;;3.35;2.65;;;20.90;99.90;;;;;;4724948;30;20068;-81
2021/06/07 11:49:55;;;;;;;3.33;3.03;;;20.80;99.90;;;;;;4712621;30;20049;-82
2021/06/07 11:52:32;;;;;;;4.05;3.75;;;20.70;99.90;;;;;;4731532;30;20065;-80
2021/06/07 11:55:19;;;;;;;2.33;2.22;;;20.60;99.90;;;;;;4715137;30;20045;-81
2021/06/07 11:57:50;;;;;;;2.78;2.58;;;20.60;99.90;;;;;;4730658;30;20488;-81
2021/06/07 12:00:20;;;;;;;2.70;2.50;;;20.60;99.90;;;;;;4730286;30;20513;-80
2021/06/07 12:02:48;;;;;;;3.70;3.40;;;20.50;99.90;;;;;;4730495;30;20526;-82
2021/06/07 12:05:17;;;;;;;2.88;2.65;;;20.40;99.90;;;;;;4726900;30;20052;-81
2021/06/07 12:07:47;;;;;;;9.38;3.42;;;20.40;99.90;;;;;;4731710;30;20075;-81
2021/06/07 12:10:17;;;;;;;3.40;2.70;;;20.50;99.90;;;;;;4730030;30;20504;-81
2021/06/07 12:12:45;;;;;;;3.05;2.85;;;20.50;99.90;;;;;;4730858;30;20090;-81
2021/06/07 12:15:16;;;;;;;4.25;3.95;;;20.60;99.90;;;;;;4730989;30;20075;-81
2021/06/07 12:17:50;;;;;;;2.85;2.60;;;20.50;99.90;;;;;;4730410;30;20400;-80
2021/06/07 12:20:19;;;;;;;2.80;2.60;;;20.50;99.90;;;;;;4728602;30;20063;-81
2021/06/07 12:22:54;;;;;;;2.83;2.63;;;20.30;99.90;;;;;;4730664;30;20059;-81
2021/06/07 12:28:21;;;;;;;2.83;2.60;;;20.20;99.90;;;;;;4731067;30;20455;-81
2021/06/07 12:31:23;;;;;;;2.97;2.67;;;20.30;99.90;;;;;;4729877;30;20052;-90
2021/06/07 12:34:00;;;;;;;4.82;2.88;;;20.40;99.90;;;;;;4719809;30;20048;-86
2021/06/07 12:36:55;;;;;;;4.93;4.53;;;20.60;99.90;;;;;;4729584;24;20052;-86
2021/06/07 12:40:57;;;;;;;3.80;2.70;;;20.70;99.90;;;;;;4701541;30;20527;-89
2021/06/07 12:43:42;;;;;;;5.82;3.22;;;20.80;99.90;;;;;;4668202;30;20418;-88
2021/06/07 12:46:56;;;;;;;3.13;2.45;;;20.60;99.90;;;;;;4676958;30;20053;-90
2021/06/07 12:50:22;;;;;;;2.45;2.25;;;20.70;99.90;;;;;;4632123;30;20062;-85
2021/06/07 12:53:14;;;;;;;2.65;2.45;;;20.80;99.90;;;;;;4611831;30;20070;-86
2021/06/07 12:59:38;;;;;;;3.25;3.05;;;20.90;99.90;;;;;;4641262;30;20066;-85
2021/06/07 13:03:29;;;;;;;2.83;2.63;;;21.00;99.90;;;;;;4635581;30;20486;-86
2021/06/07 13:06:52;;;;;;;3.90;3.50;;;21.30;99.90;;;;;;4645689;30;20453;-86
2021/06/07 13:09:44;;;;;;;3.25;3.05;;;21.30;99.90;;;;;;4682902;30;20417;-87
2021/06/07 13:12:27;;;;;;;2.83;2.63;;;21.10;99.90;;;;;;4710967;30;20072;-87
2021/06/07 13:16:23;;;;;;;2.90;2.70;;;21.00;99.90;;;;;;4698223;30;20052;-88
2021/06/07 13:19:01;;;;;;;2.72;2.53;;;21.00;99.90;;;;;;4661241;30;20053;-88
2021/06/07 13:22:07;;;;;;;3.13;2.80;;;21.00;99.90;;;;;;4699650;30;20060;-86
2021/06/07 13:26:34;;;;;;;2.45;2.25;;;21.20;99.90;;;;;;4701352;30;20064;-87
2021/06/07 13:34:04;;;;;;;3.75;2.90;;;21.60;99.90;;;;;;4646414;30;20395;-88
2021/06/07 13:37:32;;;;;;;2.88;2.67;;;21.70;99.90;;;;;;4665182;30;20483;-87
2021/06/07 13:40:39;;;;;;;3.55;3.33;;;21.60;99.90;;;;;;4663772;30;20062;-87
2021/06/07 13:44:15;;;;;;;;;;;;;;;;;;;;;